createdAt,value
2023-05-13T00:02:25.807Z,7.47
2023-05-13T00:04:54.489Z,7.83
2023-05-13T00:07:23.026Z,7.77
2023-05-13T00:09:51.551Z,8.07
2023-05-13T00:12:19.614Z,7.37
2023-05-13T00:14:48.112Z,7.47
2023-05-13T00:17:16.300Z,7.67
2023-05-13T00:19:44.794Z,7.63
2023-05-13T00:22:13.276Z,7.17
2023-05-13T00:24:41.373Z,7.93
2023-05-13T00:27:10.223Z,8.00
2023-05-13T00:29:40.363Z,7.43
2023-05-13T00:32:08.815Z,8.07
2023-05-13T00:34:37.343Z,8.00
2023-05-13T00:37:06.315Z,9.47
2023-05-13T00:39:34.420Z,7.70
2023-05-13T00:42:04.465Z,7.97
2023-05-13T00:44:32.595Z,8.90
2023-05-13T00:47:00.947Z,8.33
2023-05-13T00:49:29.119Z,8.10
2023-05-13T00:51:58.155Z,8.63
2023-05-13T00:54:26.622Z,7.63
2023-05-13T00:56:56.832Z,8.57
2023-05-13T00:59:29.001Z,7.90
2023-05-13T01:02:08.901Z,9.03
2023-05-13T01:05:18.935Z,8.43
2023-05-13T01:08:21.484Z,7.87
2023-05-13T01:11:00.064Z,8.87
2023-05-13T01:13:33.136Z,7.93
2023-05-13T01:16:41.923Z,8.97
2023-05-13T01:19:31.927Z,8.70
2023-05-13T01:22:00.445Z,8.03
2023-05-13T01:24:28.568Z,8.13
2023-05-13T01:26:56.691Z,8.90
2023-05-13T01:29:25.419Z,8.40
2023-05-13T01:31:55.233Z,8.70
2023-05-13T01:34:24.935Z,8.37
2023-05-13T01:36:53.489Z,8.77
2023-05-13T01:39:22.324Z,7.67
2023-05-13T01:41:50.480Z,8.60
2023-05-13T01:44:18.929Z,8.33
2023-05-13T01:46:50.503Z,8.37
2023-05-13T01:49:18.921Z,8.17
2023-05-13T01:51:47.051Z,8.17
2023-05-13T01:54:15.513Z,8.40
2023-05-13T01:56:43.561Z,8.17
2023-05-13T01:59:12.152Z,8.50
2023-05-13T02:01:41.216Z,7.53
2023-05-13T02:04:09.415Z,8.33
2023-05-13T02:06:37.559Z,8.33
2023-05-13T02:09:05.785Z,8.17
2023-05-13T02:11:33.871Z,7.53
2023-05-13T02:14:02.057Z,8.07
2023-05-13T02:16:30.217Z,8.80
2023-05-13T02:18:58.812Z,7.90
2023-05-13T02:21:27.280Z,7.77
2023-05-13T02:23:55.581Z,7.97
2023-05-13T02:26:24.020Z,8.00
2023-05-13T02:28:52.323Z,7.83
2023-05-13T02:31:20.844Z,8.37
2023-05-13T02:33:49.322Z,8.03
2023-05-13T02:36:17.847Z,7.53
2023-05-13T02:38:45.919Z,8.03
2023-05-13T02:41:14.480Z,7.60
2023-05-13T02:43:42.876Z,8.70
2023-05-13T02:46:11.411Z,7.77
2023-05-13T02:48:39.922Z,7.87
2023-05-13T02:51:09.586Z,7.90
2023-05-13T02:53:37.664Z,7.70
2023-05-13T02:56:06.439Z,7.63
2023-05-13T02:58:35.721Z,7.47
2023-05-13T03:01:04.128Z,7.37
2023-05-13T03:03:32.902Z,7.17
2023-05-13T03:06:01.652Z,7.70
2023-05-13T03:08:30.138Z,7.70
2023-05-13T03:10:59.401Z,7.87
2023-05-13T03:13:27.490Z,7.07
2023-05-13T03:15:55.693Z,7.90
2023-05-13T03:18:23.924Z,8.00
2023-05-13T03:20:52.071Z,8.50
2023-05-13T03:23:20.518Z,8.37
2023-05-13T03:25:48.986Z,8.07
2023-05-13T03:28:17.508Z,8.20
2023-05-13T03:30:45.616Z,8.00
2023-05-13T03:33:14.091Z,7.63
2023-05-13T03:35:42.202Z,7.87
2023-05-13T03:38:10.665Z,7.77
2023-05-13T03:40:39.110Z,7.20
2023-05-13T03:43:07.533Z,7.87
2023-05-13T03:45:36.067Z,8.30
2023-05-13T03:48:04.672Z,8.00
2023-05-13T03:50:33.336Z,7.73
2023-05-13T03:53:01.416Z,8.20
2023-05-13T03:55:29.851Z,7.80
2023-05-13T03:57:57.952Z,8.20
2023-05-13T04:00:26.500Z,8.47
2023-05-13T04:02:55.113Z,8.77
2023-05-13T04:05:23.263Z,8.30
2023-05-13T04:07:51.902Z,8.67
2023-05-13T04:10:20.362Z,8.53
2023-05-13T04:12:49.152Z,8.00
2023-05-13T04:15:17.616Z,8.07
2023-05-13T04:17:46.099Z,8.30
2023-05-13T04:20:14.349Z,7.63
2023-05-13T04:22:42.445Z,7.87
2023-05-13T04:25:11.396Z,7.33
2023-05-13T04:27:39.924Z,8.13
2023-05-13T04:30:09.051Z,7.53
2023-05-13T04:32:37.409Z,7.60
2023-05-13T04:35:06.757Z,7.67
2023-05-13T04:37:35.411Z,8.07
2023-05-13T04:40:03.934Z,8.50
2023-05-13T04:42:32.562Z,8.43
2023-05-13T04:45:01.063Z,8.27
2023-05-13T04:47:29.319Z,7.50
2023-05-13T04:49:57.430Z,7.33
2023-05-13T04:52:25.984Z,7.77
2023-05-13T04:54:54.077Z,7.83
2023-05-13T04:57:22.657Z,7.67
2023-05-13T04:59:51.169Z,7.60
2023-05-13T05:02:19.660Z,6.33
2023-05-13T05:04:49.405Z,7.83
2023-05-13T05:07:17.674Z,8.53
2023-05-13T05:09:46.225Z,8.43
2023-05-13T05:12:14.977Z,7.87
2023-05-13T05:14:43.483Z,8.83
2023-05-13T05:17:12.079Z,7.93
2023-05-13T05:19:40.941Z,8.00
2023-05-13T05:22:09.067Z,8.53
2023-05-13T05:24:37.615Z,8.50
2023-05-13T05:27:06.261Z,7.30
2023-05-13T05:29:34.740Z,7.47
2023-05-13T05:32:03.355Z,6.70
2023-05-13T05:34:31.829Z,6.47
2023-05-13T05:37:00.409Z,6.33
2023-05-13T05:39:28.859Z,7.53
2023-05-13T05:41:57.383Z,6.67
2023-05-13T05:44:25.887Z,7.40
2023-05-13T05:46:54.922Z,7.00
2023-05-13T05:49:23.733Z,6.37
2023-05-13T05:51:52.235Z,6.80
2023-05-13T05:54:23.584Z,6.20
2023-05-13T05:56:52.091Z,6.07
2023-05-13T05:59:20.607Z,6.07
2023-05-13T06:01:49.093Z,7.27
2023-05-13T06:04:17.638Z,6.37
2023-05-13T06:06:46.157Z,6.70
2023-05-13T06:09:14.730Z,6.10
2023-05-13T06:11:43.203Z,5.97
2023-05-13T06:14:11.651Z,6.33
2023-05-13T06:16:40.191Z,6.10
2023-05-13T06:19:08.773Z,6.30
2023-05-13T06:21:37.233Z,5.17
2023-05-13T06:24:05.854Z,5.23
2023-05-13T06:26:34.310Z,4.63
2023-05-13T06:29:03.124Z,5.90
2023-05-13T06:31:31.666Z,7.73
2023-05-13T06:34:02.921Z,24.40
2023-05-13T06:36:31.927Z,11.67
2023-05-13T06:39:01.080Z,9.17
2023-05-13T06:41:29.566Z,6.93
2023-05-13T06:43:58.018Z,5.50
2023-05-13T06:46:26.588Z,4.70
2023-05-13T06:48:57.864Z,5.30
2023-05-13T06:51:29.097Z,5.27
2023-05-13T06:53:57.810Z,4.73
2023-05-13T06:56:26.489Z,4.60
2023-05-13T06:58:55.196Z,4.23
2023-05-13T07:01:23.774Z,4.70
2023-05-13T07:03:52.366Z,3.80
2023-05-13T07:06:20.894Z,3.50
2023-05-13T07:08:49.519Z,3.23
2023-05-13T07:11:18.073Z,3.13
2023-05-13T07:13:47.216Z,3.60
2023-05-13T07:16:16.004Z,3.50
2023-05-13T07:18:44.638Z,4.13
2023-05-13T07:21:14.245Z,3.17
2023-05-13T07:23:44.348Z,3.90
2023-05-13T07:26:13.369Z,3.63
2023-05-13T07:28:41.866Z,4.00
2023-05-13T07:31:10.446Z,3.13
2023-05-13T07:33:38.971Z,3.00
2023-05-13T07:36:07.565Z,3.00
2023-05-13T07:38:36.084Z,2.87
2023-05-13T07:41:04.595Z,2.50
2023-05-13T07:43:35.131Z,2.70
2023-05-13T07:46:04.252Z,2.57
2023-05-13T07:48:32.790Z,2.47
2023-05-13T07:51:04.412Z,2.40
2023-05-13T07:53:32.914Z,2.47
2023-05-13T07:56:01.511Z,2.93
2023-05-13T07:58:30.032Z,2.57
2023-05-13T08:00:58.575Z,2.77
2023-05-13T08:03:27.673Z,2.80
2023-05-13T08:05:56.358Z,2.80
2023-05-13T08:08:24.822Z,2.93
2023-05-13T08:10:53.303Z,2.80
2023-05-13T08:13:21.929Z,2.57
2023-05-13T08:15:51.952Z,2.80
2023-05-13T08:18:20.632Z,2.90
2023-05-13T08:20:49.373Z,3.17
2023-05-13T08:23:17.818Z,3.40
2023-05-13T08:25:46.390Z,2.77
2023-05-13T08:28:14.874Z,3.40
2023-05-13T08:30:44.371Z,3.20
2023-05-13T08:33:13.022Z,2.80
2023-05-13T08:35:42.960Z,2.97
2023-05-13T08:38:13.170Z,3.20
2023-05-13T08:40:42.892Z,3.60
2023-05-13T08:43:12.843Z,2.67
2023-05-13T08:45:41.596Z,3.20
2023-05-13T08:48:12.535Z,3.17
2023-05-13T08:50:46.051Z,2.90
2023-05-13T08:53:14.500Z,3.60
2023-05-13T08:55:43.998Z,3.23
2023-05-13T08:58:12.829Z,3.50
2023-05-13T09:00:41.596Z,3.37
2023-05-13T09:03:10.365Z,3.10
2023-05-13T09:05:39.339Z,3.60
2023-05-13T09:08:11.242Z,2.90
2023-05-13T09:10:39.923Z,3.53
2023-05-13T09:13:08.659Z,3.53
2023-05-13T09:15:37.221Z,3.63
2023-05-13T09:18:11.675Z,3.30
2023-05-13T09:20:40.200Z,3.13
2023-05-13T09:23:12.151Z,3.37
2023-05-13T09:25:40.938Z,3.60
2023-05-13T09:28:09.668Z,3.27
2023-05-13T09:30:46.204Z,3.23
2023-05-13T09:33:20.448Z,3.30
2023-05-13T09:35:55.529Z,4.40
2023-05-13T09:38:29.142Z,3.60
2023-05-13T09:41:00.691Z,4.00
2023-05-13T09:43:33.312Z,3.40
2023-05-13T09:46:06.614Z,3.43
2023-05-13T09:48:38.116Z,3.40
2023-05-13T09:51:07.145Z,3.87
2023-05-13T09:53:35.783Z,4.87
2023-05-13T09:56:04.349Z,4.00
2023-05-13T09:58:32.932Z,4.00
2023-05-13T10:01:01.867Z,3.90
2023-05-13T10:03:32.058Z,4.60
2023-05-13T10:06:03.353Z,3.87
2023-05-13T10:08:32.392Z,3.80
2023-05-13T10:11:01.594Z,4.10
2023-05-13T10:13:32.147Z,3.97
2023-05-13T10:16:00.757Z,4.17
2023-05-13T10:18:29.750Z,3.67
2023-05-13T10:20:58.660Z,4.17
2023-05-13T10:23:28.625Z,3.77
2023-05-13T10:25:57.146Z,4.43
2023-05-13T10:28:28.202Z,4.10
2023-05-13T10:30:57.210Z,3.60
2023-05-13T10:33:25.911Z,3.43
2023-05-13T10:37:02.608Z,3.33
2023-05-13T10:40:02.850Z,3.63
2023-05-13T10:42:43.864Z,3.70
2023-05-13T10:45:12.595Z,3.57
2023-05-13T10:47:41.230Z,4.20
2023-05-13T10:50:27.573Z,3.73
2023-05-13T10:52:59.793Z,3.83
2023-05-13T10:55:29.350Z,3.67
2023-05-13T10:58:16.258Z,4.30
2023-05-13T11:00:46.394Z,3.53
2023-05-13T11:03:16.620Z,3.60
2023-05-13T11:06:19.472Z,3.60
2023-05-13T11:08:50.234Z,3.83
2023-05-13T11:11:24.327Z,3.70
2023-05-13T11:14:18.946Z,3.90
2023-05-13T11:17:00.286Z,3.90
2023-05-13T11:19:37.689Z,3.50
2023-05-13T11:22:24.948Z,3.73
2023-05-13T11:25:11.240Z,3.50
2023-05-13T11:27:42.032Z,3.50
2023-05-13T11:30:27.675Z,3.90
2023-05-13T11:33:02.791Z,3.57
2023-05-13T11:35:33.814Z,3.50
2023-05-13T11:38:04.138Z,4.13
2023-05-13T11:40:38.390Z,3.80
2023-05-13T11:43:07.142Z,3.97
2023-05-13T11:45:40.309Z,3.10
2023-05-13T11:48:26.370Z,3.17
2023-05-13T11:50:58.316Z,3.70
2023-05-13T11:53:26.855Z,3.47
2023-05-13T11:55:55.640Z,3.60
2023-05-13T11:58:24.109Z,3.40
2023-05-13T12:00:53.236Z,3.67
2023-05-13T12:03:22.032Z,3.40
2023-05-13T12:05:51.386Z,3.73
2023-05-13T12:08:20.912Z,3.30
2023-05-13T12:10:50.358Z,3.60
2023-05-13T12:13:19.377Z,3.33
2023-05-13T12:15:48.130Z,3.40
2023-05-13T12:18:16.859Z,3.60
2023-05-13T12:20:46.068Z,3.83
2023-05-13T12:23:15.568Z,3.13
2023-05-13T12:25:51.264Z,3.50
2023-05-13T12:28:23.442Z,3.23
2023-05-13T12:31:02.410Z,3.43
2023-05-13T12:33:34.423Z,3.60
2023-05-13T12:36:33.625Z,3.10
2023-05-13T12:39:06.545Z,3.50
2023-05-13T12:41:43.850Z,3.10
2023-05-13T12:44:16.033Z,3.60
2023-05-13T12:46:58.402Z,3.10
2023-05-13T12:49:27.354Z,3.07
2023-05-13T12:51:57.040Z,2.87
2023-05-13T12:54:25.582Z,2.70
2023-05-13T12:56:54.446Z,2.60
2023-05-13T12:59:22.899Z,2.47
2023-05-13T13:01:51.924Z,2.43
2023-05-13T13:04:20.654Z,2.67
2023-05-13T13:06:49.317Z,2.83
2023-05-13T13:09:18.025Z,2.87
2023-05-13T13:11:46.702Z,2.90
2023-05-13T13:14:15.337Z,3.17
2023-05-13T13:16:44.539Z,2.93
2023-05-13T13:19:13.161Z,3.10
2023-05-13T13:21:41.746Z,3.07
2023-05-13T13:24:10.437Z,2.90
2023-05-13T13:26:38.980Z,3.53
2023-05-13T13:29:07.578Z,2.87
2023-05-13T13:31:36.186Z,3.47
2023-05-13T13:34:06.025Z,2.97
2023-05-13T13:36:34.558Z,3.40
2023-05-13T13:39:03.046Z,2.97
2023-05-13T13:41:31.595Z,2.90
2023-05-13T13:44:00.019Z,3.10
2023-05-13T13:46:29.036Z,3.30
2023-05-13T13:48:57.564Z,3.10
2023-05-13T13:51:26.021Z,2.90
2023-05-13T13:53:54.757Z,3.30
2023-05-13T13:56:23.456Z,2.93
2023-05-13T13:58:54.333Z,2.57
2023-05-13T14:01:23.022Z,2.93
2023-05-13T14:03:52.299Z,2.80
2023-05-13T14:06:21.155Z,2.80
2023-05-13T14:08:51.948Z,2.90
2023-05-13T14:11:21.036Z,2.33
2023-05-13T14:13:49.558Z,2.50
2023-05-13T14:16:18.374Z,2.53
2023-05-13T14:18:47.013Z,2.30
2023-05-13T14:21:15.579Z,2.57
2023-05-13T14:23:44.234Z,2.47
2023-05-13T14:26:15.385Z,2.10
2023-05-13T14:28:44.510Z,2.07
2023-05-13T14:31:13.052Z,2.37
2023-05-13T14:33:41.653Z,2.53
2023-05-13T14:36:11.430Z,2.70
2023-05-13T14:38:40.562Z,2.20
2023-05-13T14:41:09.048Z,2.13
2023-05-13T14:43:37.533Z,2.30
2023-05-13T14:46:06.071Z,2.53
2023-05-13T14:48:34.615Z,2.67
2023-05-13T14:51:03.088Z,2.63
2023-05-13T14:53:31.299Z,2.70
2023-05-13T14:55:59.790Z,2.67
2023-05-13T14:58:28.314Z,2.50
2023-05-13T15:00:57.147Z,2.67
2023-05-13T15:03:25.668Z,2.70
2023-05-13T15:05:54.545Z,2.57
2023-05-13T15:08:23.073Z,2.60
2023-05-13T15:10:51.621Z,2.20
2023-05-13T15:13:20.134Z,2.40
2023-05-13T15:15:48.603Z,2.37
2023-05-13T15:18:17.042Z,2.47
2023-05-13T15:20:45.918Z,2.83
2023-05-13T15:23:14.502Z,2.50
2023-05-13T15:25:43.427Z,2.50
2023-05-13T15:28:11.536Z,2.80
2023-05-13T15:30:40.100Z,3.10
2023-05-13T15:33:08.654Z,2.60
2023-05-13T15:35:37.276Z,2.50
2023-05-13T15:38:05.837Z,2.77
2023-05-13T15:40:34.096Z,2.70
2023-05-13T15:43:02.756Z,2.80
2023-05-13T15:45:31.222Z,2.90
2023-05-13T15:47:59.825Z,2.33
2023-05-13T15:50:28.350Z,2.90
2023-05-13T15:52:56.838Z,2.60
2023-05-13T15:55:25.289Z,2.63
2023-05-13T15:57:53.917Z,2.83
2023-05-13T16:00:22.700Z,2.80
2023-05-13T16:02:51.487Z,2.40
2023-05-13T16:05:20.101Z,2.90
2023-05-13T16:07:48.717Z,2.50
2023-05-13T16:10:17.663Z,2.10
2023-05-13T16:12:46.162Z,2.17
2023-05-13T16:15:14.721Z,2.03
2023-05-13T16:17:43.368Z,1.57
2023-05-13T16:20:12.057Z,1.73
2023-05-13T16:22:40.615Z,2.87
2023-05-13T16:25:10.806Z,2.33
2023-05-13T16:27:40.544Z,2.40
2023-05-13T16:30:21.488Z,2.00
2023-05-13T16:32:53.524Z,2.20
2023-05-13T16:35:22.820Z,2.20
2023-05-13T16:37:52.003Z,2.87
2023-05-13T16:40:20.711Z,2.87
2023-05-13T16:42:49.320Z,2.13
2023-05-13T16:45:18.560Z,2.30
2023-05-13T16:47:47.042Z,2.20
2023-05-13T16:50:15.745Z,1.90
2023-05-13T16:52:44.261Z,2.10
2023-05-13T16:55:12.782Z,2.00
2023-05-13T16:57:41.295Z,2.20
2023-05-13T17:00:10.451Z,2.17
2023-05-13T17:02:39.101Z,2.00
2023-05-13T17:05:08.261Z,2.13
2023-05-13T17:07:36.758Z,2.20
2023-05-13T17:10:06.072Z,2.30
2023-05-13T17:12:35.341Z,2.63
2023-05-13T17:15:05.078Z,2.40
2023-05-13T17:17:33.708Z,2.30
2023-05-13T17:20:02.279Z,2.17
2023-05-13T17:22:30.775Z,2.40
2023-05-13T17:24:59.380Z,2.27
2023-05-13T17:27:27.860Z,2.23
2023-05-13T17:29:56.564Z,2.37
2023-05-13T17:32:25.158Z,2.37
2023-05-13T17:34:53.834Z,2.10
2023-05-13T17:37:22.351Z,2.20
2023-05-13T17:39:51.224Z,2.53
2023-05-13T17:42:19.710Z,2.37
2023-05-13T17:44:48.283Z,2.60
2023-05-13T17:47:17.036Z,2.47
2023-05-13T17:49:45.693Z,2.97
2023-05-13T17:52:14.227Z,2.50
2023-05-13T17:54:44.127Z,3.10
2023-05-13T17:57:12.575Z,2.93
2023-05-13T17:59:41.073Z,3.00
2023-05-13T18:02:09.209Z,2.77
2023-05-13T18:04:37.695Z,2.83
2023-05-13T18:07:06.242Z,2.60
2023-05-13T18:09:34.789Z,2.67
2023-05-13T18:12:03.274Z,2.90
2023-05-13T18:14:33.402Z,2.97
2023-05-13T18:17:02.138Z,2.63
2023-05-13T18:19:30.636Z,2.70
2023-05-13T18:21:59.120Z,2.60
2023-05-13T18:24:27.695Z,2.70
2023-05-13T18:26:56.261Z,2.90
2023-05-13T18:29:24.595Z,3.30
2023-05-13T18:31:53.206Z,3.00
2023-05-13T18:34:21.773Z,3.20
2023-05-13T18:36:52.217Z,3.10
2023-05-13T18:39:21.243Z,3.20
2023-05-13T18:41:50.062Z,3.17
2023-05-13T18:44:18.494Z,3.27
2023-05-13T18:46:47.102Z,3.30
2023-05-13T18:49:15.807Z,2.90
2023-05-13T18:51:45.525Z,2.80
2023-05-13T18:54:14.068Z,2.87
2023-05-13T18:56:42.589Z,3.07
2023-05-13T18:59:11.104Z,3.60
2023-05-13T19:01:40.021Z,4.13
2023-05-13T19:04:09.002Z,3.73
2023-05-13T19:06:38.101Z,4.30
2023-05-13T19:09:06.844Z,4.00
2023-05-13T19:11:35.469Z,4.27
2023-05-13T19:14:03.986Z,3.90
2023-05-13T19:16:32.678Z,4.70
2023-05-13T19:19:01.355Z,4.07
2023-05-13T19:21:29.911Z,3.97
2023-05-13T19:23:58.706Z,4.23
2023-05-13T19:26:27.399Z,4.70
2023-05-13T19:28:56.382Z,4.23
2023-05-13T19:31:27.019Z,4.33
2023-05-13T19:33:55.636Z,4.40
2023-05-13T19:36:26.280Z,4.07
2023-05-13T19:38:55.760Z,3.93
2023-05-13T19:41:24.328Z,4.30
2023-05-13T19:43:52.863Z,4.17
2023-05-13T19:46:21.498Z,3.90
2023-05-13T19:48:50.267Z,3.90
2023-05-13T19:51:19.251Z,4.17
2023-05-13T19:53:47.737Z,3.90
2023-05-13T19:56:16.232Z,3.70
2023-05-13T19:58:45.120Z,3.50
2023-05-13T20:01:14.978Z,3.80
2023-05-13T20:03:43.645Z,4.33
2023-05-13T20:06:12.368Z,5.13
2023-05-13T20:08:41.352Z,4.73
2023-05-13T20:11:09.803Z,3.97
2023-05-13T20:13:38.305Z,3.90
2023-05-13T20:16:06.767Z,4.33
2023-05-13T20:18:35.460Z,4.23
2023-05-13T20:21:04.006Z,3.70
2023-05-13T20:23:32.854Z,4.17
2023-05-13T20:26:01.539Z,4.00
2023-05-13T20:28:30.274Z,3.70
2023-05-13T20:30:58.755Z,3.97
2023-05-13T20:33:27.371Z,3.83
2023-05-13T20:35:56.064Z,3.43
2023-05-13T20:38:24.580Z,4.00
2023-05-13T20:40:53.212Z,3.87
2023-05-13T20:43:21.672Z,3.53
2023-05-13T20:45:50.671Z,3.40
2023-05-13T20:48:19.269Z,3.60
2023-05-13T20:50:47.938Z,3.47
2023-05-13T20:53:17.335Z,3.63
2023-05-13T20:55:45.934Z,3.60
2023-05-13T20:58:14.409Z,3.70
2023-05-13T21:00:43.215Z,3.60
2023-05-13T21:03:11.723Z,3.60
2023-05-13T21:05:40.297Z,3.40
2023-05-13T21:08:09.223Z,3.40
2023-05-13T21:10:37.757Z,3.70
2023-05-13T21:13:06.476Z,3.50
2023-05-13T21:15:36.557Z,3.87
2023-05-13T21:18:05.015Z,4.20
2023-05-13T21:20:33.902Z,3.63
2023-05-13T21:23:02.476Z,3.80
2023-05-13T21:25:31.015Z,3.87
2023-05-13T21:28:00.095Z,3.87
2023-05-13T21:30:32.268Z,3.77
2023-05-13T21:33:01.237Z,4.23
2023-05-13T21:35:29.809Z,4.03
2023-05-13T21:38:10.995Z,4.07
2023-05-13T21:40:40.348Z,4.30
2023-05-13T21:43:08.948Z,4.70
2023-05-13T21:45:37.475Z,4.87
2023-05-13T21:48:06.782Z,4.30
2023-05-13T21:50:36.106Z,4.20
2023-05-13T21:53:05.014Z,4.50
2023-05-13T21:55:35.027Z,4.30
2023-05-13T21:58:03.982Z,4.47
2023-05-13T22:00:33.074Z,4.37
2023-05-13T22:03:01.846Z,4.20
2023-05-13T22:05:30.077Z,4.43
2023-05-13T22:08:00.186Z,3.80
2023-05-13T22:10:28.973Z,4.40
2023-05-13T22:12:57.464Z,4.63
2023-05-13T22:15:25.925Z,4.40
2023-05-13T22:17:54.752Z,4.20
2023-05-13T22:20:23.665Z,4.17
2023-05-13T22:22:52.395Z,4.80
2023-05-13T22:25:21.249Z,4.77
2023-05-13T22:27:51.766Z,5.20
2023-05-13T22:30:20.272Z,4.53
2023-05-13T22:32:50.448Z,5.17
2023-05-13T22:35:18.911Z,4.60
2023-05-13T22:37:47.388Z,4.70
2023-05-13T22:40:15.905Z,4.60
2023-05-13T22:42:44.467Z,4.83
2023-05-13T22:45:13.277Z,4.60
2023-05-13T22:47:41.499Z,4.67
2023-05-13T22:50:12.250Z,4.67
2023-05-13T22:52:40.790Z,4.60
2023-05-13T22:55:09.783Z,4.53
2023-05-13T22:57:38.265Z,4.53
2023-05-13T23:00:07.594Z,4.47
2023-05-13T23:02:36.108Z,4.00
2023-05-13T23:05:04.578Z,4.70
2023-05-13T23:07:32.692Z,4.33
2023-05-13T23:10:01.153Z,5.03
2023-05-13T23:12:29.707Z,4.10
2023-05-13T23:14:58.353Z,4.90
2023-05-13T23:17:26.527Z,4.33
2023-05-13T23:19:54.699Z,4.63
2023-05-13T23:22:23.151Z,4.40
2023-05-13T23:24:52.529Z,4.87
2023-05-13T23:27:21.057Z,4.33
2023-05-13T23:29:50.122Z,5.20
2023-05-13T23:32:19.149Z,4.80
2023-05-13T23:34:47.653Z,4.83
2023-05-13T23:37:16.457Z,5.20
2023-05-13T23:39:45.319Z,4.93
2023-05-13T23:42:13.515Z,5.10
2023-05-13T23:44:41.985Z,5.23
2023-05-13T23:47:12.014Z,5.20
2023-05-13T23:49:40.584Z,5.00
2023-05-13T23:52:09.161Z,5.70
2023-05-13T23:54:37.637Z,5.80
2023-05-13T23:57:06.256Z,5.57
2023-05-13T23:59:34.690Z,5.40
